createdAt,value
2017-06-30T00:00:06.982Z,0
2017-06-30T00:00:27.653Z,0
2017-06-30T00:00:48.314Z,0
2017-06-30T00:01:09.483Z,0
2017-06-30T00:01:30.313Z,0
2017-06-30T00:01:50.968Z,0
2017-06-30T00:02:11.680Z,0
2017-06-30T00:02:32.349Z,0
2017-06-30T00:02:53.018Z,0
2017-06-30T00:03:13.672Z,0
2017-06-30T00:03:34.989Z,0
2017-06-30T00:03:55.636Z,0
2017-06-30T00:04:16.313Z,0
2017-06-30T00:04:37.043Z,0
2017-06-30T00:04:57.727Z,0
2017-06-30T00:05:19.007Z,0
2017-06-30T00:05:39.672Z,0
2017-06-30T00:06:00.338Z,0
2017-06-30T00:06:20.998Z,0
2017-06-30T00:06:41.659Z,0
2017-06-30T00:07:02.317Z,0
2017-06-30T00:07:23.005Z,0
2017-06-30T00:07:43.686Z,0
2017-06-30T00:08:04.344Z,0
2017-06-30T00:08:25.030Z,0
2017-06-30T00:08:45.685Z,0
2017-06-30T00:09:06.357Z,0
2017-06-30T00:09:26.997Z,0
2017-06-30T00:09:47.653Z,0
2017-06-30T00:10:08.303Z,0
2017-06-30T00:10:28.951Z,0
2017-06-30T00:10:49.603Z,0
2017-06-30T00:11:10.251Z,0
2017-06-30T00:11:30.904Z,0
2017-06-30T00:11:51.565Z,0
2017-06-30T00:12:12.218Z,0
2017-06-30T00:12:33.652Z,0
2017-06-30T00:12:54.324Z,0
2017-06-30T00:13:14.971Z,0
2017-06-30T00:13:35.647Z,0
2017-06-30T00:13:56.302Z,0
2017-06-30T00:14:16.961Z,0
2017-06-30T00:14:37.611Z,0
2017-06-30T00:14:58.287Z,0
2017-06-30T00:15:18.964Z,0
2017-06-30T00:15:39.654Z,0
2017-06-30T00:16:01.146Z,0
2017-06-30T00:16:21.791Z,0
2017-06-30T00:16:42.503Z,0
2017-06-30T00:17:03.150Z,0
2017-06-30T00:17:24.391Z,0
2017-06-30T00:17:45.102Z,0
2017-06-30T00:18:05.760Z,0
2017-06-30T00:18:26.423Z,0
2017-06-30T00:18:47.108Z,0
2017-06-30T00:19:07.784Z,0
2017-06-30T00:19:29.022Z,0
2017-06-30T00:19:49.711Z,0
2017-06-30T00:20:10.361Z,0
2017-06-30T00:20:31.040Z,0
2017-06-30T00:20:51.725Z,0
2017-06-30T00:21:12.379Z,0
2017-06-30T00:21:33.036Z,0
2017-06-30T00:21:54.990Z,0
2017-06-30T00:22:15.695Z,0
2017-06-30T00:22:36.354Z,0
2017-06-30T00:22:57.004Z,0
2017-06-30T00:23:17.681Z,0
2017-06-30T00:23:38.369Z,0
2017-06-30T00:24:00.395Z,0
2017-06-30T00:24:22.025Z,0
2017-06-30T00:24:42.670Z,0
2017-06-30T00:25:03.939Z,0
2017-06-30T00:25:24.591Z,0
2017-06-30T00:25:45.328Z,0
2017-06-30T00:26:06.033Z,0
2017-06-30T00:26:26.733Z,0
2017-06-30T00:26:47.384Z,0
2017-06-30T00:27:08.033Z,0
2017-06-30T00:27:28.694Z,0
2017-06-30T00:27:50.060Z,0
2017-06-30T00:28:10.704Z,0
2017-06-30T00:28:31.365Z,0
2017-06-30T00:28:52.088Z,0
2017-06-30T00:29:12.734Z,0
2017-06-30T00:29:33.393Z,0
2017-06-30T00:29:54.068Z,0
2017-06-30T00:30:15.588Z,0
2017-06-30T00:30:36.243Z,0
2017-06-30T00:30:59.411Z,0
2017-06-30T00:31:20.080Z,0
2017-06-30T00:31:40.739Z,0
2017-06-30T00:32:01.392Z,0
2017-06-30T00:32:22.052Z,0
2017-06-30T00:32:42.736Z,0
2017-06-30T00:33:04.020Z,0
2017-06-30T00:33:24.664Z,0
2017-06-30T00:33:45.324Z,0
2017-06-30T00:34:06.005Z,0
2017-06-30T00:34:27.522Z,0
2017-06-30T00:34:48.169Z,0
2017-06-30T00:35:08.824Z,0
2017-06-30T00:35:30.394Z,0
2017-06-30T00:35:51.903Z,0
2017-06-30T00:36:13.401Z,0
2017-06-30T00:36:34.055Z,0
2017-06-30T00:36:54.718Z,0
2017-06-30T00:37:15.358Z,0
2017-06-30T00:37:37.021Z,0
2017-06-30T00:37:57.681Z,0
2017-06-30T00:38:18.350Z,0
2017-06-30T00:38:39.008Z,0
2017-06-30T00:38:59.659Z,0
2017-06-30T00:39:20.309Z,0
2017-06-30T00:39:40.960Z,0
2017-06-30T00:40:01.633Z,0
2017-06-30T00:40:22.303Z,0
2017-06-30T00:40:42.961Z,0
2017-06-30T00:41:03.637Z,0
2017-06-30T00:41:24.367Z,0
2017-06-30T00:41:45.074Z,0
2017-06-30T00:42:05.746Z,0
2017-06-30T00:42:26.378Z,0
2017-06-30T00:42:47.091Z,0
2017-06-30T00:43:08.474Z,0
2017-06-30T00:43:29.122Z,0
2017-06-30T00:43:49.775Z,0
2017-06-30T00:44:10.452Z,0
2017-06-30T00:44:32.012Z,0
2017-06-30T00:44:52.667Z,0
2017-06-30T00:45:13.350Z,0
2017-06-30T00:45:34.044Z,0
2017-06-30T00:45:54.743Z,0
2017-06-30T00:46:16.017Z,0
2017-06-30T00:46:37.520Z,0
2017-06-30T00:46:58.174Z,0
2017-06-30T00:47:18.818Z,0
2017-06-30T00:47:39.464Z,0
2017-06-30T00:48:01.427Z,0
2017-06-30T00:48:23.521Z,0
2017-06-30T00:48:44.195Z,0
2017-06-30T00:49:04.851Z,0
2017-06-30T00:49:25.494Z,0
2017-06-30T00:49:46.132Z,0
2017-06-30T00:50:06.786Z,0
2017-06-30T00:50:27.479Z,0
2017-06-30T00:50:48.136Z,0
2017-06-30T00:51:08.812Z,0
2017-06-30T00:51:29.459Z,0
2017-06-30T00:51:50.104Z,0
2017-06-30T00:52:10.740Z,0
2017-06-30T00:52:31.391Z,0
2017-06-30T00:52:52.917Z,0
2017-06-30T00:53:13.570Z,0
2017-06-30T00:53:34.207Z,0
2017-06-30T00:53:56.106Z,0
2017-06-30T00:54:16.756Z,0
2017-06-30T00:54:37.458Z,0
2017-06-30T00:54:58.174Z,0
2017-06-30T00:55:18.851Z,0
2017-06-30T00:55:39.509Z,0
2017-06-30T00:56:00.161Z,0
2017-06-30T00:56:20.828Z,0
2017-06-30T00:56:41.484Z,0
2017-06-30T00:57:02.916Z,0
2017-06-30T00:57:23.565Z,0
2017-06-30T00:57:44.207Z,0
2017-06-30T00:58:04.857Z,0
2017-06-30T00:58:25.506Z,0
2017-06-30T00:58:46.173Z,0
2017-06-30T00:59:07.506Z,0
2017-06-30T00:59:28.156Z,0
2017-06-30T00:59:48.842Z,0
2017-06-30T01:00:09.530Z,0
2017-06-30T01:00:30.174Z,0
2017-06-30T01:00:50.826Z,0
2017-06-30T01:01:11.536Z,0
2017-06-30T01:01:32.196Z,0
2017-06-30T01:01:54.422Z,0
2017-06-30T01:02:15.150Z,0
2017-06-30T01:02:35.802Z,0
2017-06-30T01:02:56.448Z,0
2017-06-30T01:03:19.007Z,0
2017-06-30T01:03:39.662Z,0
2017-06-30T01:04:00.318Z,0
2017-06-30T01:04:20.958Z,0
2017-06-30T01:04:41.629Z,0
2017-06-30T01:05:02.302Z,0
2017-06-30T01:05:23.557Z,0
2017-06-30T01:05:44.216Z,0
2017-06-30T01:06:04.862Z,0
2017-06-30T01:06:25.498Z,0
2017-06-30T01:06:46.162Z,0
2017-06-30T01:07:07.525Z,0
2017-06-30T01:07:28.926Z,0
2017-06-30T01:07:49.590Z,0
2017-06-30T01:08:10.267Z,0
2017-06-30T01:08:30.943Z,0
2017-06-30T01:08:51.601Z,0
2017-06-30T01:09:12.280Z,0
2017-06-30T01:09:32.946Z,0
2017-06-30T01:09:53.649Z,0
2017-06-30T01:10:14.296Z,0
2017-06-30T01:10:35.070Z,0
2017-06-30T01:10:56.500Z,0
2017-06-30T01:11:17.179Z,0
2017-06-30T01:11:37.818Z,0
2017-06-30T01:11:58.469Z,0
2017-06-30T01:12:19.157Z,0
2017-06-30T01:12:39.801Z,0
2017-06-30T01:13:00.448Z,0
2017-06-30T01:13:21.131Z,0
2017-06-30T01:13:41.802Z,0
2017-06-30T01:14:02.457Z,0
2017-06-30T01:14:23.127Z,0
2017-06-30T01:14:43.773Z,0
2017-06-30T01:15:04.422Z,0
2017-06-30T01:15:26.420Z,0
2017-06-30T01:15:47.081Z,0
2017-06-30T01:16:08.433Z,0
2017-06-30T01:16:29.143Z,0
2017-06-30T01:16:49.793Z,0
2017-06-30T01:17:10.445Z,0
2017-06-30T01:17:31.126Z,0
2017-06-30T01:17:51.815Z,0
2017-06-30T01:18:13.434Z,0
2017-06-30T01:18:34.125Z,0
2017-06-30T01:18:54.761Z,0
2017-06-30T01:19:15.419Z,0
2017-06-30T01:19:36.064Z,0
2017-06-30T01:19:56.695Z,0
2017-06-30T01:20:17.355Z,0
2017-06-30T01:20:38.057Z,0
2017-06-30T01:20:58.749Z,0
2017-06-30T01:21:20.062Z,0
2017-06-30T01:21:40.732Z,0
2017-06-30T01:22:01.924Z,0
2017-06-30T01:22:23.591Z,0
2017-06-30T01:22:44.233Z,0
2017-06-30T01:23:05.601Z,0
2017-06-30T01:23:26.265Z,0
2017-06-30T01:23:46.908Z,0
2017-06-30T01:24:07.554Z,0
2017-06-30T01:24:28.241Z,0
2017-06-30T01:24:48.932Z,0
2017-06-30T01:25:09.575Z,0
2017-06-30T01:25:30.245Z,0
2017-06-30T01:25:50.918Z,0
2017-06-30T01:26:11.554Z,0
2017-06-30T01:26:32.941Z,0
2017-06-30T01:26:53.600Z,0
2017-06-30T01:27:14.290Z,0
2017-06-30T01:27:34.928Z,0
2017-06-30T01:27:56.545Z,0
2017-06-30T01:28:18.053Z,0
2017-06-30T01:28:38.729Z,0
2017-06-30T01:28:59.404Z,0
2017-06-30T01:29:20.068Z,0
2017-06-30T01:29:40.750Z,0
2017-06-30T01:30:01.412Z,0
2017-06-30T01:30:22.083Z,0
2017-06-30T01:30:42.775Z,0
2017-06-30T01:31:03.425Z,0
2017-06-30T01:31:24.103Z,0
2017-06-30T01:31:44.775Z,0
2017-06-30T01:32:05.430Z,0
2017-06-30T01:32:27.050Z,0
2017-06-30T01:32:47.711Z,0
2017-06-30T01:33:08.377Z,0
2017-06-30T01:33:29.008Z,0
2017-06-30T01:33:49.737Z,0
2017-06-30T01:34:10.388Z,0
2017-06-30T01:34:31.051Z,0
2017-06-30T01:34:51.741Z,0
2017-06-30T01:35:12.417Z,0
2017-06-30T01:35:33.072Z,0
2017-06-30T01:35:54.514Z,0
2017-06-30T01:36:16.056Z,0
2017-06-30T01:36:36.712Z,0
2017-06-30T01:36:57.372Z,0
2017-06-30T01:37:18.054Z,0
2017-06-30T01:37:38.720Z,0
2017-06-30T01:37:59.374Z,0
2017-06-30T01:38:20.059Z,0
2017-06-30T01:38:40.702Z,0
2017-06-30T01:39:01.352Z,0
2017-06-30T01:39:22.049Z,0
2017-06-30T01:39:43.557Z,0
2017-06-30T01:40:04.224Z,0
2017-06-30T01:40:24.885Z,0
2017-06-30T01:40:45.564Z,0
2017-06-30T01:41:06.213Z,0
2017-06-30T01:41:26.867Z,0
2017-06-30T01:41:47.541Z,0
2017-06-30T01:42:08.186Z,0
2017-06-30T01:42:28.830Z,0
2017-06-30T01:42:49.481Z,0
2017-06-30T01:43:10.133Z,0
2017-06-30T01:43:30.848Z,0
2017-06-30T01:43:51.507Z,0
2017-06-30T01:44:12.197Z,0
2017-06-30T01:44:32.870Z,0
2017-06-30T01:44:53.547Z,0
2017-06-30T01:45:14.221Z,0
2017-06-30T01:45:34.874Z,0
2017-06-30T01:45:55.532Z,0
2017-06-30T01:46:16.282Z,0
2017-06-30T01:46:37.560Z,0
2017-06-30T01:46:58.199Z,0
2017-06-30T01:47:18.831Z,0
2017-06-30T01:47:39.508Z,0
2017-06-30T01:48:00.206Z,0
2017-06-30T01:48:20.891Z,0
2017-06-30T01:48:41.548Z,0
2017-06-30T01:49:02.228Z,0
2017-06-30T01:49:22.881Z,0
2017-06-30T01:49:43.544Z,0
2017-06-30T01:50:04.202Z,0
2017-06-30T01:50:24.853Z,0
2017-06-30T01:50:45.514Z,0
2017-06-30T01:51:06.158Z,0
2017-06-30T01:51:26.837Z,0
2017-06-30T01:51:48.456Z,0
2017-06-30T01:52:09.156Z,0
2017-06-30T01:52:29.800Z,0
2017-06-30T01:52:50.495Z,0
2017-06-30T01:53:12.057Z,0
2017-06-30T01:53:33.477Z,0
2017-06-30T01:53:54.130Z,0
2017-06-30T01:54:14.779Z,0
2017-06-30T01:54:35.520Z,0
2017-06-30T01:54:58.054Z,0
2017-06-30T01:55:18.701Z,0
2017-06-30T01:55:40.145Z,0
2017-06-30T01:56:00.781Z,0
2017-06-30T01:56:21.439Z,0
2017-06-30T01:56:42.105Z,0
2017-06-30T01:57:04.534Z,0
2017-06-30T01:57:25.197Z,0
2017-06-30T01:57:45.848Z,0
2017-06-30T01:58:06.511Z,0
2017-06-30T01:58:27.169Z,0
2017-06-30T01:58:47.831Z,0
2017-06-30T01:59:08.482Z,0
2017-06-30T01:59:29.132Z,0
2017-06-30T01:59:49.765Z,0
2017-06-30T02:00:10.398Z,0
2017-06-30T02:00:31.074Z,0
2017-06-30T02:00:51.736Z,0
2017-06-30T02:01:12.384Z,0
2017-06-30T02:01:33.071Z,0
2017-06-30T02:01:53.758Z,0
2017-06-30T02:02:14.413Z,0
2017-06-30T02:02:35.064Z,0
2017-06-30T02:02:55.775Z,0
2017-06-30T02:03:17.079Z,0
2017-06-30T02:03:37.747Z,0
2017-06-30T02:03:58.428Z,0
2017-06-30T02:04:19.071Z,0
2017-06-30T02:04:39.749Z,0
2017-06-30T02:05:00.395Z,0
2017-06-30T02:05:21.067Z,0
2017-06-30T02:05:41.755Z,0
2017-06-30T02:06:02.400Z,0
2017-06-30T02:06:23.050Z,0
2017-06-30T02:06:43.705Z,0
2017-06-30T02:07:04.356Z,0
2017-06-30T02:07:25.016Z,0
2017-06-30T02:07:45.696Z,0
2017-06-30T02:08:06.360Z,0
2017-06-30T02:08:27.037Z,0
2017-06-30T02:08:47.688Z,0
2017-06-30T02:09:08.342Z,0
2017-06-30T02:09:29.020Z,0
2017-06-30T02:09:49.718Z,0
2017-06-30T02:10:10.384Z,0
2017-06-30T02:10:31.050Z,0
2017-06-30T02:10:51.725Z,0
2017-06-30T02:11:13.115Z,0
2017-06-30T02:11:34.565Z,0
2017-06-30T02:11:55.239Z,4
2017-06-30T02:12:15.878Z,4
2017-06-30T02:12:36.514Z,4
2017-06-30T02:12:57.994Z,4
2017-06-30T02:13:18.658Z,4
2017-06-30T02:13:39.312Z,4
2017-06-30T02:13:59.962Z,4
2017-06-30T02:14:20.612Z,4
2017-06-30T02:14:41.275Z,4
2017-06-30T02:15:02.460Z,4
2017-06-30T02:15:23.105Z,4
2017-06-30T02:15:44.558Z,0
2017-06-30T02:16:05.987Z,0
2017-06-30T02:16:28.592Z,0
2017-06-30T02:16:49.259Z,0
2017-06-30T02:17:10.595Z,0
2017-06-30T02:17:31.239Z,4
2017-06-30T02:17:51.879Z,4
2017-06-30T02:18:12.524Z,4
2017-06-30T02:18:33.156Z,4
2017-06-30T02:18:53.805Z,4
2017-06-30T02:19:15.071Z,4
2017-06-30T02:19:35.743Z,4
2017-06-30T02:19:56.406Z,4
2017-06-30T02:20:17.059Z,4
2017-06-30T02:20:37.704Z,4
2017-06-30T02:20:59.071Z,4
2017-06-30T02:21:19.752Z,4
2017-06-30T02:21:40.590Z,8
2017-06-30T02:22:03.289Z,8
2017-06-30T02:22:24.977Z,4
2017-06-30T02:22:45.654Z,4
2017-06-30T02:23:06.296Z,8
2017-06-30T02:23:27.007Z,8
2017-06-30T02:23:48.492Z,8
2017-06-30T02:24:09.176Z,4
2017-06-30T02:24:29.828Z,8
2017-06-30T02:24:50.492Z,8
2017-06-30T02:25:11.139Z,8
2017-06-30T02:25:31.788Z,8
2017-06-30T02:25:52.448Z,8
2017-06-30T02:26:13.113Z,8
2017-06-30T02:26:34.647Z,12
2017-06-30T02:26:55.301Z,12
2017-06-30T02:27:15.954Z,8
2017-06-30T02:27:36.647Z,12
2017-06-30T02:27:57.308Z,12
2017-06-30T02:28:17.954Z,12
2017-06-30T02:28:39.514Z,12
2017-06-30T02:29:00.173Z,12
2017-06-30T02:29:20.824Z,16
2017-06-30T02:29:42.093Z,16
2017-06-30T02:30:02.766Z,16
2017-06-30T02:30:23.421Z,16
2017-06-30T02:30:44.788Z,16
2017-06-30T02:31:05.440Z,16
2017-06-30T02:31:26.119Z,16
2017-06-30T02:31:46.796Z,20
2017-06-30T02:32:07.446Z,20
2017-06-30T02:32:28.661Z,20
2017-06-30T02:32:49.318Z,20
2017-06-30T02:33:10.484Z,20
2017-06-30T02:33:31.130Z,20
2017-06-30T02:33:51.837Z,20
2017-06-30T02:34:12.482Z,24
2017-06-30T02:34:33.122Z,20
2017-06-30T02:34:53.789Z,24
2017-06-30T02:35:14.447Z,24
2017-06-30T02:35:35.107Z,24
2017-06-30T02:35:55.800Z,28
2017-06-30T02:36:16.450Z,28
2017-06-30T02:36:37.096Z,28
2017-06-30T02:36:57.751Z,28
2017-06-30T02:37:18.423Z,32
2017-06-30T02:37:39.078Z,32
2017-06-30T02:37:59.721Z,32
2017-06-30T02:38:20.371Z,32
2017-06-30T02:38:41.062Z,32
2017-06-30T02:39:01.765Z,36
2017-06-30T02:39:22.414Z,36
2017-06-30T02:39:43.070Z,36
2017-06-30T02:40:03.748Z,40
2017-06-30T02:40:25.088Z,36
2017-06-30T02:40:46.581Z,40
2017-06-30T02:41:08.098Z,40
2017-06-30T02:41:28.753Z,40
2017-06-30T02:41:49.398Z,44
2017-06-30T02:42:10.065Z,40
2017-06-30T02:42:30.728Z,44
2017-06-30T02:42:51.375Z,44
2017-06-30T02:43:12.548Z,48
2017-06-30T02:43:33.202Z,44
2017-06-30T02:43:53.850Z,48
2017-06-30T02:44:14.499Z,48
2017-06-30T02:44:35.190Z,48
2017-06-30T02:44:56.502Z,48
2017-06-30T02:45:17.164Z,52
2017-06-30T02:45:37.842Z,52
2017-06-30T02:45:58.520Z,52
2017-06-30T02:46:19.243Z,56
2017-06-30T02:46:39.927Z,56
2017-06-30T02:47:00.606Z,56
2017-06-30T02:47:22.080Z,52
2017-06-30T02:47:42.741Z,52
2017-06-30T02:48:03.390Z,52
2017-06-30T02:48:24.047Z,52
2017-06-30T02:48:44.715Z,52
2017-06-30T02:49:05.373Z,52
2017-06-30T02:49:26.589Z,52
2017-06-30T02:49:49.114Z,56
2017-06-30T02:50:09.759Z,56
2017-06-30T02:50:30.418Z,56
2017-06-30T02:50:51.056Z,56
2017-06-30T02:51:11.725Z,60
2017-06-30T02:51:32.375Z,60
2017-06-30T02:51:53.562Z,60
2017-06-30T02:52:15.060Z,60
2017-06-30T02:52:35.715Z,64
2017-06-30T02:52:56.363Z,64
2017-06-30T02:53:17.049Z,68
2017-06-30T02:53:37.774Z,68
2017-06-30T02:53:58.411Z,72
2017-06-30T02:54:19.075Z,72
2017-06-30T02:54:39.756Z,80
2017-06-30T02:55:00.404Z,80
2017-06-30T02:55:21.632Z,84
2017-06-30T02:55:42.277Z,92
2017-06-30T02:56:02.928Z,96
2017-06-30T02:56:23.585Z,104
2017-06-30T02:56:44.223Z,108
2017-06-30T02:57:04.867Z,112
2017-06-30T02:57:25.529Z,116
2017-06-30T02:57:46.185Z,124
2017-06-30T02:58:06.880Z,128
2017-06-30T02:58:27.565Z,132
2017-06-30T02:58:50.101Z,136
2017-06-30T02:59:10.762Z,136
2017-06-30T02:59:31.440Z,140
2017-06-30T02:59:52.089Z,144
2017-06-30T03:00:14.524Z,144
2017-06-30T03:00:35.164Z,144
2017-06-30T03:00:55.874Z,140
2017-06-30T03:01:16.539Z,144
2017-06-30T03:01:37.190Z,136
2017-06-30T03:01:57.835Z,136
2017-06-30T03:02:18.500Z,140
2017-06-30T03:02:39.140Z,140
2017-06-30T03:02:59.787Z,144
2017-06-30T03:03:21.175Z,148
2017-06-30T03:03:43.200Z,152
2017-06-30T03:04:03.856Z,160
2017-06-30T03:04:24.514Z,168
2017-06-30T03:04:45.154Z,172
2017-06-30T03:05:05.857Z,180
2017-06-30T03:05:26.538Z,184
2017-06-30T03:05:47.319Z,192
2017-06-30T03:06:08.007Z,200
2017-06-30T03:06:29.169Z,204
2017-06-30T03:06:49.920Z,212
2017-06-30T03:07:10.777Z,220
2017-06-30T03:07:31.444Z,228
2017-06-30T03:07:52.116Z,228
2017-06-30T03:08:12.782Z,232
2017-06-30T03:08:33.724Z,232
2017-06-30T03:08:55.099Z,232
2017-06-30T03:09:17.171Z,232
2017-06-30T03:09:37.947Z,232
2017-06-30T03:09:58.599Z,240
2017-06-30T03:10:21.012Z,240
2017-06-30T03:10:41.689Z,244
2017-06-30T03:11:02.374Z,240
2017-06-30T03:11:23.056Z,240
2017-06-30T03:11:43.937Z,236
2017-06-30T03:12:04.750Z,236
2017-06-30T03:12:25.466Z,232
2017-06-30T03:12:46.242Z,232
2017-06-30T03:13:06.986Z,232
2017-06-30T03:13:27.649Z,228
2017-06-30T03:13:48.425Z,224
2017-06-30T03:14:09.186Z,224
2017-06-30T03:14:30.038Z,220
2017-06-30T03:14:50.723Z,224
2017-06-30T03:15:11.556Z,220
2017-06-30T03:15:32.272Z,224
2017-06-30T03:15:52.999Z,220
2017-06-30T03:16:15.086Z,224
2017-06-30T03:16:35.765Z,220
2017-06-30T03:16:57.271Z,216
2017-06-30T03:17:19.648Z,212
2017-06-30T03:17:40.777Z,208
2017-06-30T03:18:02.150Z,208
2017-06-30T03:18:22.837Z,204
2017-06-30T03:18:43.609Z,204
2017-06-30T03:19:04.370Z,204
2017-06-30T03:19:25.040Z,204
2017-06-30T03:19:45.860Z,204
2017-06-30T03:20:07.105Z,204
2017-06-30T03:20:27.800Z,208
2017-06-30T03:20:49.035Z,212
2017-06-30T03:21:09.717Z,220
2017-06-30T03:21:30.403Z,228
2017-06-30T03:21:51.050Z,236
2017-06-30T03:22:11.783Z,248
2017-06-30T03:22:33.042Z,256
2017-06-30T03:22:53.683Z,260
2017-06-30T03:23:14.342Z,268
2017-06-30T03:23:35.467Z,272
2017-06-30T03:23:56.149Z,280
2017-06-30T03:24:17.611Z,288
2017-06-30T03:24:39.024Z,300
2017-06-30T03:24:59.691Z,308
2017-06-30T03:25:20.340Z,316
2017-06-30T03:25:41.017Z,320
2017-06-30T03:26:01.689Z,324
2017-06-30T03:26:22.344Z,328
2017-06-30T03:26:43.005Z,332
2017-06-30T03:27:03.755Z,344
2017-06-30T03:27:24.413Z,344
2017-06-30T03:27:45.076Z,340
2017-06-30T03:28:05.747Z,336
2017-06-30T03:28:26.429Z,328
2017-06-30T03:28:47.075Z,328
2017-06-30T03:29:07.717Z,324
2017-06-30T03:29:28.371Z,316
2017-06-30T03:29:50.035Z,308
2017-06-30T03:30:10.839Z,304
2017-06-30T03:30:31.535Z,296
2017-06-30T03:30:52.198Z,300
2017-06-30T03:31:12.884Z,308
2017-06-30T03:31:33.602Z,324
2017-06-30T03:31:54.321Z,332
2017-06-30T03:32:15.009Z,344
2017-06-30T03:32:35.685Z,348
2017-06-30T03:32:56.337Z,352
2017-06-30T03:33:17.008Z,352
2017-06-30T03:33:37.652Z,348
2017-06-30T03:33:58.443Z,340
2017-06-30T03:34:19.170Z,328
2017-06-30T03:34:40.608Z,316
2017-06-30T03:35:01.324Z,308
2017-06-30T03:35:22.013Z,300
2017-06-30T03:35:42.685Z,292
2017-06-30T03:36:03.350Z,284
2017-06-30T03:36:24.023Z,276
2017-06-30T03:36:44.679Z,272
2017-06-30T03:37:05.379Z,268
2017-06-30T03:37:26.071Z,268
2017-06-30T03:37:46.720Z,264
2017-06-30T03:38:07.352Z,268
2017-06-30T03:38:28.012Z,268
2017-06-30T03:38:48.704Z,272
2017-06-30T03:39:09.371Z,276
2017-06-30T03:39:30.093Z,280
2017-06-30T03:39:50.753Z,284
2017-06-30T03:40:11.518Z,288
2017-06-30T03:40:32.233Z,292
2017-06-30T03:40:52.900Z,300
2017-06-30T03:41:13.647Z,304
2017-06-30T03:41:34.366Z,304
2017-06-30T03:41:55.014Z,304
2017-06-30T03:42:15.682Z,308
2017-06-30T03:42:36.358Z,312
2017-06-30T03:42:57.101Z,312
2017-06-30T03:43:17.756Z,308
2017-06-30T03:43:38.436Z,304
2017-06-30T03:44:00.039Z,304
2017-06-30T03:44:20.696Z,304
2017-06-30T03:44:41.392Z,308
2017-06-30T03:45:02.036Z,308
2017-06-30T03:45:22.712Z,316
2017-06-30T03:45:43.413Z,320
2017-06-30T03:46:04.077Z,332
2017-06-30T03:46:24.750Z,332
2017-06-30T03:46:46.233Z,340
2017-06-30T03:47:07.568Z,352
2017-06-30T03:47:28.235Z,364
2017-06-30T03:47:48.935Z,372
2017-06-30T03:48:10.551Z,380
2017-06-30T03:48:31.251Z,392
2017-06-30T03:48:51.942Z,404
2017-06-30T03:49:12.616Z,408
2017-06-30T03:49:33.312Z,416
2017-06-30T03:49:54.651Z,420
2017-06-30T03:50:16.159Z,416
2017-06-30T03:50:36.816Z,412
2017-06-30T03:50:57.619Z,412
2017-06-30T03:51:18.269Z,404
2017-06-30T03:51:38.933Z,400
2017-06-30T03:51:59.623Z,392
2017-06-30T03:52:20.316Z,396
2017-06-30T03:52:42.550Z,396
2017-06-30T03:53:03.248Z,404
2017-06-30T03:53:23.941Z,412
2017-06-30T03:53:44.627Z,420
2017-06-30T03:54:05.274Z,424
2017-06-30T03:54:25.928Z,428
2017-06-30T03:54:47.127Z,432
2017-06-30T03:55:07.842Z,440
2017-06-30T03:55:28.504Z,448
2017-06-30T03:55:49.157Z,456
2017-06-30T03:56:09.846Z,464
2017-06-30T03:56:30.502Z,468
2017-06-30T03:56:51.168Z,468
2017-06-30T03:57:11.821Z,468
2017-06-30T03:57:32.468Z,464
2017-06-30T03:57:53.660Z,460
2017-06-30T03:58:14.345Z,460
2017-06-30T03:58:35.695Z,464
2017-06-30T03:58:56.344Z,472
2017-06-30T03:59:17.024Z,480
2017-06-30T03:59:38.689Z,492
2017-06-30T03:59:59.364Z,500
2017-06-30T04:00:20.026Z,512
2017-06-30T04:00:42.152Z,520
2017-06-30T04:01:02.817Z,528
2017-06-30T04:01:23.480Z,536
2017-06-30T04:01:44.669Z,532
2017-06-30T04:02:06.053Z,532
2017-06-30T04:02:26.699Z,524
2017-06-30T04:02:48.073Z,528
2017-06-30T04:03:08.744Z,532
2017-06-30T04:03:30.048Z,536
2017-06-30T04:03:50.730Z,540
2017-06-30T04:04:11.388Z,544
2017-06-30T04:04:32.103Z,552
2017-06-30T04:04:54.548Z,564
2017-06-30T04:05:15.216Z,576
2017-06-30T04:05:35.869Z,592
2017-06-30T04:05:56.553Z,604
2017-06-30T04:06:17.203Z,612
2017-06-30T04:06:37.962Z,616
2017-06-30T04:06:59.229Z,620
2017-06-30T04:07:19.898Z,628
2017-06-30T04:07:40.572Z,632
2017-06-30T04:08:01.294Z,636
2017-06-30T04:08:21.946Z,636
2017-06-30T04:08:42.588Z,636
2017-06-30T04:09:03.241Z,640
2017-06-30T04:09:24.545Z,636
2017-06-30T04:09:46.185Z,648
2017-06-30T04:10:07.654Z,656
2017-06-30T04:10:28.355Z,664
2017-06-30T04:10:48.993Z,664
2017-06-30T04:11:10.555Z,664
2017-06-30T04:11:31.205Z,656
2017-06-30T04:11:52.723Z,664
2017-06-30T04:12:13.399Z,660
2017-06-30T04:12:34.149Z,664
2017-06-30T04:12:55.643Z,664
2017-06-30T04:13:17.178Z,664
2017-06-30T04:13:37.822Z,676
2017-06-30T04:13:58.481Z,692
2017-06-30T04:14:20.637Z,708
2017-06-30T04:14:41.300Z,720
2017-06-30T04:15:02.700Z,732
2017-06-30T04:15:23.345Z,744
2017-06-30T04:15:43.993Z,748
2017-06-30T04:16:04.665Z,748
2017-06-30T04:16:26.304Z,736
2017-06-30T04:16:46.965Z,724
2017-06-30T04:17:07.654Z,704
2017-06-30T04:17:29.163Z,680
2017-06-30T04:17:51.651Z,656
2017-06-30T04:18:13.209Z,636
2017-06-30T04:18:34.582Z,612
2017-06-30T04:18:57.086Z,592
2017-06-30T04:19:17.734Z,568
2017-06-30T04:19:39.721Z,548
2017-06-30T04:20:00.386Z,532
2017-06-30T04:20:21.573Z,520
2017-06-30T04:20:42.239Z,508
2017-06-30T04:21:02.905Z,492
2017-06-30T04:21:25.172Z,484
2017-06-30T04:21:46.576Z,472
2017-06-30T04:22:08.163Z,460
2017-06-30T04:22:28.836Z,448
2017-06-30T04:22:49.486Z,432
2017-06-30T04:23:10.654Z,416
2017-06-30T04:23:32.142Z,404
2017-06-30T04:23:53.699Z,392
2017-06-30T04:24:14.395Z,388
2017-06-30T04:24:35.051Z,388
2017-06-30T04:24:55.735Z,388
2017-06-30T04:25:16.404Z,396
2017-06-30T04:25:37.085Z,400
2017-06-30T04:25:58.333Z,404
2017-06-30T04:26:19.020Z,416
2017-06-30T04:26:39.713Z,428
2017-06-30T04:27:01.182Z,440
2017-06-30T04:27:21.862Z,452
2017-06-30T04:27:42.585Z,464
2017-06-30T04:28:03.247Z,468
2017-06-30T04:28:23.903Z,468
2017-06-30T04:28:44.551Z,460
2017-06-30T04:29:06.222Z,460
2017-06-30T04:29:26.877Z,460
2017-06-30T04:29:47.532Z,448
2017-06-30T04:30:08.246Z,444
2017-06-30T04:30:28.964Z,428
2017-06-30T04:30:50.601Z,424
2017-06-30T04:31:12.136Z,420
2017-06-30T04:31:32.784Z,416
2017-06-30T04:31:53.470Z,416
2017-06-30T04:32:14.106Z,420
2017-06-30T04:32:34.818Z,424
2017-06-30T04:32:55.481Z,444
2017-06-30T04:33:16.165Z,448
2017-06-30T04:33:36.820Z,460
2017-06-30T04:33:57.463Z,472
2017-06-30T04:34:18.121Z,488
2017-06-30T04:34:38.770Z,500
2017-06-30T04:34:59.462Z,512
2017-06-30T04:35:21.069Z,524
2017-06-30T04:35:41.715Z,544
2017-06-30T04:36:03.094Z,564
2017-06-30T04:36:23.863Z,580
2017-06-30T04:36:44.544Z,608
2017-06-30T04:37:06.703Z,620
2017-06-30T04:37:27.369Z,628
2017-06-30T04:37:48.057Z,632
2017-06-30T04:38:08.738Z,640
2017-06-30T04:38:29.390Z,636
2017-06-30T04:38:50.039Z,624
2017-06-30T04:39:10.757Z,612
2017-06-30T04:39:32.183Z,600
2017-06-30T04:39:52.839Z,592
2017-06-30T04:40:13.492Z,584
2017-06-30T04:40:34.171Z,584
2017-06-30T04:40:54.825Z,576
2017-06-30T04:41:15.511Z,572
2017-06-30T04:41:37.577Z,572
2017-06-30T04:41:58.275Z,572
2017-06-30T04:42:19.682Z,572
2017-06-30T04:42:41.260Z,576
2017-06-30T04:43:01.920Z,576
2017-06-30T04:43:22.563Z,576
2017-06-30T04:43:43.213Z,572
2017-06-30T04:44:03.885Z,572
2017-06-30T04:44:24.540Z,568
2017-06-30T04:44:45.204Z,572
2017-06-30T04:45:05.848Z,564
2017-06-30T04:45:26.504Z,560
2017-06-30T04:45:48.079Z,552
2017-06-30T04:46:08.751Z,548
2017-06-30T04:46:30.198Z,544
2017-06-30T04:46:50.848Z,536
2017-06-30T04:47:12.158Z,532
2017-06-30T04:47:33.680Z,532
2017-06-30T04:47:55.275Z,528
2017-06-30T04:48:16.592Z,524
2017-06-30T04:48:37.246Z,528
2017-06-30T04:48:57.915Z,528
2017-06-30T04:49:18.585Z,528
2017-06-30T04:49:39.277Z,520
2017-06-30T04:50:00.666Z,528
2017-06-30T04:50:21.365Z,536
2017-06-30T04:50:42.045Z,544
2017-06-30T04:51:02.711Z,564
2017-06-30T04:51:23.361Z,584
2017-06-30T04:51:44.041Z,620
2017-06-30T04:52:04.698Z,664
2017-06-30T04:52:25.402Z,720
2017-06-30T04:52:46.059Z,784
2017-06-30T04:53:06.722Z,868
2017-06-30T04:53:28.330Z,964
2017-06-30T04:53:49.010Z,1020
2017-06-30T04:54:10.584Z,1064
2017-06-30T04:54:31.262Z,1112
2017-06-30T04:54:51.931Z,1160
2017-06-30T04:55:13.283Z,1192
2017-06-30T04:55:33.937Z,1228
2017-06-30T04:55:54.597Z,1252
2017-06-30T04:56:15.267Z,1272
2017-06-30T04:56:36.708Z,1272
2017-06-30T04:56:57.450Z,1268
2017-06-30T04:57:18.113Z,1260
2017-06-30T04:57:38.772Z,1272
2017-06-30T04:58:00.203Z,1296